BIHN

Hornafjordur Airport

Hornafjordur, Iceland
METAR BIHN 191900Z 35008KT 9999 FEW040 BKN070 02/M05 Q0996
Observed Flight Rules
Jan-19 @ 19:00 UTC (12 hours ago) Visual Flight Rules
Wind Visibility Clouds
350° at 8 knots 10,000+ meters
  • Few at 4,000' AGL
  • Broken at 7,000' AGL
Temperatures Readings
Current 2°C / 36°F
Dewpoint -5°C / 23°F
Humidity 60%
Altimeter 29.41" Hg
Pressure 996 hPa
Elevation 7
METAR BIHN 191900Z 35008KT 9999 FEW040 BKN070 02/M05 Q0996
Observed Flight Rules
Jan-19 @ 19:00 UTC
(12 hours ago)
VFR
Wind Visibility
350° at 8 knots 10,000+ meters
Clouds
  • Few at 4,000' AGL
  • Broken at 7,000' AGL
Temperature Dewpoint
2°C / 36°F -5°C / 23°F
Humidity Altimeter Pressure
60% 29.41" Hg 996 hPa